Aérodrome :
LOGIN :

S'inscrire | Disclaimer

   EN    FR    IT 

 










Légende :    VFR   VFR Marginal   IFR   IFR Intensif   IFR Très Intensif
Visi : 
Plafond : 
>= 8 km
>= 3000ft
5 à 8 km
1000 à 3000 ft
1500m à 5 km
500 à 1000 ft
800 à 1500m
200 à 500 ft
< 800m
< 200 ft
Symboles :   Orages  Brouillard  Fortes neiges  Fortes précipitations  Vent > 20 kt
SIGMETs :   Divers  Orages  Givrage  Turbulence  Onde Orograph.  Cendres Volcan.






- Altitude de l'aérodrome : 913 ft


LFSX - Luxeuil

DERNIER METAR :
  • 151300Z AUTO 24007KT 170V330 CAVOK 28/15 Q1015

METARs EXPIRÉS :
  • 151230Z AUTO VRB04KT CAVOK 27/14 Q1015
  • 151200Z AUTO VRB04KT 9999 BKN046 BKN052 27/15 Q1015
  • 151130Z AUTO 29005KT 230V360 9999 SCT041 BKN047 26/15 Q1015
  • 151100Z AUTO VRB05KT 9999 SCT039 26/16 Q1015
  • 151030Z AUTO VRB04G16KT 9999 FEW040 25/16 Q1016

Prévision TAF périmée.



MET'MAP, la Météo Aéronautique d'un coup d'oeil ! - Copyright ORBIFLY Décembre 2007 - Disclaimer

ORBIFLY MET'MAP TEAM :

Programmation & Développement : Alexandra Zaïnal
Sur une idée originale de : Baudouin d'Aumeries
Assistance à la programmation : Marc-Olivier Méhu
Soutien technique & logistique : Manuel Goepfert

Contact : metmap@orbifly.com




SOURCES & CREDITS :

   NOAA